sensor_id;sensor_type;location;lat;lon;timestamp;pressure;altitude;pressure_sealevel;temperature;humidity
55171;BME280;41060;47.510;8.680;2023-05-19T00:00:30;97349.84;;;15.74;43.80
55171;BME280;41060;47.510;8.680;2023-05-19T00:02:58;97347.28;;;15.82;43.72
55171;BME280;41060;47.510;8.680;2023-05-19T00:05:25;97344.69;;;15.90;44.02
55171;BME280;41060;47.510;8.680;2023-05-19T00:07:55;97320.44;;;15.84;43.84
55171;BME280;41060;47.510;8.680;2023-05-19T00:10:25;97319.81;;;15.72;44.37
55171;BME280;41060;47.510;8.680;2023-05-19T00:12:54;97337.94;;;15.68;44.35
55171;BME280;41060;47.510;8.680;2023-05-19T00:15:21;97339.06;;;15.66;44.61
55171;BME280;41060;47.510;8.680;2023-05-19T00:17:48;97343.16;;;15.60;44.81
55171;BME280;41060;47.510;8.680;2023-05-19T00:20:16;97336.63;;;15.45;45.43
55171;BME280;41060;47.510;8.680;2023-05-19T00:22:43;97348.19;;;15.36;45.32
55171;BME280;41060;47.510;8.680;2023-05-19T00:25:11;97335.41;;;15.40;44.73
55171;BME280;41060;47.510;8.680;2023-05-19T00:27:38;97338.19;;;15.48;44.66
55171;BME280;41060;47.510;8.680;2023-05-19T00:30:06;97339.50;;;15.61;44.07
55171;BME280;41060;47.510;8.680;2023-05-19T00:32:33;97311.47;;;15.57;44.37
55171;BME280;41060;47.510;8.680;2023-05-19T00:35:00;97327.50;;;15.75;44.35
55171;BME280;41060;47.510;8.680;2023-05-19T00:37:26;97335.06;;;15.80;44.72
55171;BME280;41060;47.510;8.680;2023-05-19T00:39:53;97329.56;;;15.81;44.45
55171;BME280;41060;47.510;8.680;2023-05-19T00:42:21;97251.78;;;15.21;45.07
55171;BME280;41060;47.510;8.680;2023-05-19T00:44:48;97328.44;;;15.56;45.16
55171;BME280;41060;47.510;8.680;2023-05-19T00:47:15;97330.13;;;15.57;45.24
55171;BME280;41060;47.510;8.680;2023-05-19T00:49:41;97325.31;;;15.61;44.66
55171;BME280;41060;47.510;8.680;2023-05-19T00:52:08;97322.66;;;15.61;44.91
55171;BME280;41060;47.510;8.680;2023-05-19T00:54:35;97321.03;;;15.50;45.28
55171;BME280;41060;47.510;8.680;2023-05-19T00:57:02;97320.97;;;15.60;44.64
55171;BME280;41060;47.510;8.680;2023-05-19T00:59:30;97315.88;;;15.66;44.31
55171;BME280;41060;47.510;8.680;2023-05-19T01:01:57;97317.97;;;15.72;44.35
55171;BME280;41060;47.510;8.680;2023-05-19T01:04:27;97315.59;;;15.69;43.65
55171;BME280;41060;47.510;8.680;2023-05-19T01:06:54;97308.22;;;15.54;43.73
55171;BME280;41060;47.510;8.680;2023-05-19T01:09:22;97308.56;;;15.41;44.00
55171;BME280;41060;47.510;8.680;2023-05-19T01:11:49;97309.84;;;15.37;44.34
55171;BME280;41060;47.510;8.680;2023-05-19T01:14:16;97308.06;;;15.28;44.60
55171;BME280;41060;47.510;8.680;2023-05-19T01:16:48;97303.59;;;15.09;44.93
55171;BME280;41060;47.510;8.680;2023-05-19T01:19:31;97311.94;;;14.96;45.21
55171;BME280;41060;47.510;8.680;2023-05-19T01:28:55;97310.72;;;14.81;45.95
55171;BME280;41060;47.510;8.680;2023-05-19T01:31:27;97316.03;;;14.81;45.90
55171;BME280;41060;47.510;8.680;2023-05-19T01:33:59;97310.56;;;14.83;46.17
55171;BME280;41060;47.510;8.680;2023-05-19T01:36:26;97306.34;;;14.80;46.04
55171;BME280;41060;47.510;8.680;2023-05-19T01:38:55;97314.63;;;14.77;46.34
55171;BME280;41060;47.510;8.680;2023-05-19T01:41:24;97307.06;;;14.73;46.22
55171;BME280;41060;47.510;8.680;2023-05-19T01:43:52;97308.34;;;14.69;46.31
55171;BME280;41060;47.510;8.680;2023-05-19T01:46:19;97312.69;;;14.70;46.23
55171;BME280;41060;47.510;8.680;2023-05-19T01:48:48;97305.38;;;14.72;45.85
55171;BME280;41060;47.510;8.680;2023-05-19T01:51:18;97311.09;;;14.86;45.83
55171;BME280;41060;47.510;8.680;2023-05-19T01:53:44;97311.78;;;14.98;45.42
55171;BME280;41060;47.510;8.680;2023-05-19T01:56:14;97307.13;;;15.10;45.46
55171;BME280;41060;47.510;8.680;2023-05-19T01:58:43;97307.97;;;15.20;44.73
55171;BME280;41060;47.510;8.680;2023-05-19T02:01:17;97308.59;;;15.31;44.34
55171;BME280;41060;47.510;8.680;2023-05-19T02:04:00;97307.78;;;15.31;44.40
55171;BME280;41060;47.510;8.680;2023-05-19T02:06:36;97309.16;;;15.35;43.94
55171;BME280;41060;47.510;8.680;2023-05-19T02:09:11;97318.31;;;15.32;44.49
55171;BME280;41060;47.510;8.680;2023-05-19T02:11:46;97311.56;;;15.28;44.41
55171;BME280;41060;47.510;8.680;2023-05-19T02:14:19;97315.97;;;15.10;44.82
55171;BME280;41060;47.510;8.680;2023-05-19T02:16:47;97313.44;;;15.09;44.96
55171;BME280;41060;47.510;8.680;2023-05-19T02:19:22;97317.94;;;15.08;44.86
55171;BME280;41060;47.510;8.680;2023-05-19T02:21:50;97301.38;;;15.05;44.63
55171;BME280;41060;47.510;8.680;2023-05-19T02:24:19;97307.00;;;15.21;44.69
55171;BME280;41060;47.510;8.680;2023-05-19T02:26:47;97314.03;;;15.12;45.16
55171;BME280;41060;47.510;8.680;2023-05-19T02:29:14;97314.75;;;14.95;45.58
55171;BME280;41060;47.510;8.680;2023-05-19T02:31:41;97315.34;;;14.79;45.80
55171;BME280;41060;47.510;8.680;2023-05-19T02:34:09;97313.22;;;14.83;45.74
55171;BME280;41060;47.510;8.680;2023-05-19T02:36:39;97280.47;;;14.53;45.83
55171;BME280;41060;47.510;8.680;2023-05-19T02:39:08;97300.91;;;14.63;46.05
55171;BME280;41060;47.510;8.680;2023-05-19T02:41:37;97302.31;;;14.67;46.00
55171;BME280;41060;47.510;8.680;2023-05-19T02:44:04;97265.50;;;14.24;46.67
55171;BME280;41060;47.510;8.680;2023-05-19T02:46:30;97298.41;;;14.42;46.73
55171;BME280;41060;47.510;8.680;2023-05-19T02:48:59;97292.38;;;14.49;46.46
55171;BME280;41060;47.510;8.680;2023-05-19T02:51:26;97279.34;;;14.46;46.50
55171;BME280;41060;47.510;8.680;2023-05-19T02:53:54;97291.13;;;14.44;46.52
55171;BME280;41060;47.510;8.680;2023-05-19T02:56:21;97266.19;;;14.16;47.08
55171;BME280;41060;47.510;8.680;2023-05-19T02:58:49;97294.06;;;14.12;48.06
55171;BME280;41060;47.510;8.680;2023-05-19T03:01:16;97303.19;;;14.19;47.79
55171;BME280;41060;47.510;8.680;2023-05-19T03:03:46;97301.34;;;14.19;47.83
55171;BME280;41060;47.510;8.680;2023-05-19T03:06:12;97276.94;;;14.05;47.99
55171;BME280;41060;47.510;8.680;2023-05-19T03:08:39;97295.19;;;14.19;47.91
55171;BME280;41060;47.510;8.680;2023-05-19T03:11:08;97296.13;;;13.99;48.49
55171;BME280;41060;47.510;8.680;2023-05-19T03:13:34;97296.56;;;14.04;48.46
55171;BME280;41060;47.510;8.680;2023-05-19T03:16:01;97293.94;;;14.13;48.25
55171;BME280;41060;47.510;8.680;2023-05-19T03:18:28;97290.44;;;14.13;48.01
55171;BME280;41060;47.510;8.680;2023-05-19T03:20:55;97292.38;;;14.11;47.99
55171;BME280;41060;47.510;8.680;2023-05-19T03:23:21;97293.94;;;14.13;48.00
55171;BME280;41060;47.510;8.680;2023-05-19T03:25:48;97295.88;;;14.11;47.86
55171;BME280;41060;47.510;8.680;2023-05-19T03:28:16;97292.66;;;14.08;48.06
55171;BME280;41060;47.510;8.680;2023-05-19T03:30:43;97289.69;;;14.01;48.43
55171;BME280;41060;47.510;8.680;2023-05-19T03:33:10;97296.88;;;14.10;48.42
55171;BME280;41060;47.510;8.680;2023-05-19T03:35:36;97293.50;;;14.18;48.39
55171;BME280;41060;47.510;8.680;2023-05-19T03:38:03;97290.28;;;14.14;48.20
55171;BME280;41060;47.510;8.680;2023-05-19T03:40:30;97289.00;;;14.09;48.29
55171;BME280;41060;47.510;8.680;2023-05-19T03:42:56;97296.00;;;14.10;48.30
55171;BME280;41060;47.510;8.680;2023-05-19T03:45:26;97293.22;;;14.11;48.32
55171;BME280;41060;47.510;8.680;2023-05-19T03:47:54;97301.47;;;14.08;48.01
55171;BME280;41060;47.510;8.680;2023-05-19T03:50:21;97295.13;;;13.90;48.68
55171;BME280;41060;47.510;8.680;2023-05-19T03:52:48;97267.34;;;13.54;49.41
55171;BME280;41060;47.510;8.680;2023-05-19T03:55:15;97297.34;;;13.66;49.43
55171;BME280;41060;47.510;8.680;2023-05-19T03:57:44;97305.72;;;13.61;49.76
55171;BME280;41060;47.510;8.680;2023-05-19T04:00:12;97298.84;;;13.59;49.58
55171;BME280;41060;47.510;8.680;2023-05-19T04:02:40;97302.53;;;13.58;49.88
55171;BME280;41060;47.510;8.680;2023-05-19T04:05:07;97308.66;;;13.58;49.83
55171;BME280;41060;47.510;8.680;2023-05-19T04:07:34;97302.09;;;13.62;50.04
55171;BME280;41060;47.510;8.680;2023-05-19T04:10:03;97300.84;;;13.66;49.50
55171;BME280;41060;47.510;8.680;2023-05-19T04:12:30;97305.69;;;13.52;50.04
55171;BME280;41060;47.510;8.680;2023-05-19T04:14:57;97309.19;;;13.52;49.89
55171;BME280;41060;47.510;8.680;2023-05-19T04:17:24;97280.63;;;13.35;49.59
55171;BME280;41060;47.510;8.680;2023-05-19T04:19:53;97310.59;;;13.47;49.68
55171;BME280;41060;47.510;8.680;2023-05-19T04:22:19;97317.19;;;13.43;49.71
55171;BME280;41060;47.510;8.680;2023-05-19T04:24:46;97317.59;;;13.48;49.93
55171;BME280;41060;47.510;8.680;2023-05-19T04:27:14;97315.94;;;13.56;49.66
55171;BME280;41060;47.510;8.680;2023-05-19T04:29:42;97324.78;;;13.57;49.43
55171;BME280;41060;47.510;8.680;2023-05-19T04:32:10;97320.56;;;13.54;49.60
55171;BME280;41060;47.510;8.680;2023-05-19T04:34:44;97322.13;;;13.57;49.53
55171;BME280;41060;47.510;8.680;2023-05-19T04:37:13;97320.47;;;13.65;48.90
55171;BME280;41060;47.510;8.680;2023-05-19T04:39:40;97323.00;;;13.76;48.76
55171;BME280;41060;47.510;8.680;2023-05-19T04:42:09;97325.53;;;13.78;48.55
55171;BME280;41060;47.510;8.680;2023-05-19T04:44:36;97327.63;;;13.84;48.31
55171;BME280;41060;47.510;8.680;2023-05-19T04:47:05;97328.78;;;13.91;47.95
55171;BME280;41060;47.510;8.680;2023-05-19T04:49:33;97326.09;;;13.91;48.34
55171;BME280;41060;47.510;8.680;2023-05-19T04:52:05;97332.44;;;14.00;47.83
55171;BME280;41060;47.510;8.680;2023-05-19T04:54:34;97323.44;;;13.91;47.76
55171;BME280;41060;47.510;8.680;2023-05-19T04:57:00;97332.31;;;14.01;47.77
55171;BME280;41060;47.510;8.680;2023-05-19T04:59:27;97337.88;;;13.79;48.59
55171;BME280;41060;47.510;8.680;2023-05-19T05:01:54;97323.84;;;13.77;48.62
55171;BME280;41060;47.510;8.680;2023-05-19T05:04:20;97325.78;;;13.75;48.90
55171;BME280;41060;47.510;8.680;2023-05-19T05:06:47;97332.97;;;13.84;48.59
55171;BME280;41060;47.510;8.680;2023-05-19T05:09:14;97337.16;;;13.77;48.41
55171;BME280;41060;47.510;8.680;2023-05-19T05:11:43;97340.81;;;13.86;48.07
55171;BME280;41060;47.510;8.680;2023-05-19T05:14:11;97340.38;;;13.80;48.43
55171;BME280;41060;47.510;8.680;2023-05-19T05:16:38;97338.66;;;13.70;48.61
55171;BME280;41060;47.510;8.680;2023-05-19T05:19:05;97337.31;;;13.85;48.55
55171;BME280;41060;47.510;8.680;2023-05-19T05:21:33;97337.59;;;13.92;48.10
55171;BME280;41060;47.510;8.680;2023-05-19T05:24:00;97330.41;;;13.63;48.71
55171;BME280;41060;47.510;8.680;2023-05-19T05:26:29;97328.75;;;13.72;48.56
55171;BME280;41060;47.510;8.680;2023-05-19T05:28:58;97329.69;;;13.61;48.67
55171;BME280;41060;47.510;8.680;2023-05-19T05:31:25;97311.78;;;13.63;48.56
55171;BME280;41060;47.510;8.680;2023-05-19T05:33:51;97328.03;;;13.70;48.18
55171;BME280;41060;47.510;8.680;2023-05-19T05:36:19;97332.09;;;13.64;48.56
55171;BME280;41060;47.510;8.680;2023-05-19T05:38:45;97324.81;;;13.76;48.07
55171;BME280;41060;47.510;8.680;2023-05-19T05:41:12;97325.13;;;13.92;47.46
55171;BME280;41060;47.510;8.680;2023-05-19T05:43:39;97324.41;;;13.90;47.41
55171;BME280;41060;47.510;8.680;2023-05-19T05:46:07;97325.25;;;13.81;48.14
55171;BME280;41060;47.510;8.680;2023-05-19T05:48:34;97326.75;;;13.74;47.81
55171;BME280;41060;47.510;8.680;2023-05-19T05:51:01;97331.41;;;13.72;48.44
55171;BME280;41060;47.510;8.680;2023-05-19T05:53:29;97338.34;;;13.54;48.52
55171;BME280;41060;47.510;8.680;2023-05-19T05:55:59;97330.47;;;13.52;48.65
55171;BME280;41060;47.510;8.680;2023-05-19T05:58:26;97336.47;;;13.45;48.98
55171;BME280;41060;47.510;8.680;2023-05-19T06:00:53;97311.13;;;13.40;48.38
55171;BME280;41060;47.510;8.680;2023-05-19T06:03:23;97327.72;;;13.63;48.45
55171;BME280;41060;47.510;8.680;2023-05-19T06:05:51;97330.47;;;13.52;48.44
55171;BME280;41060;47.510;8.680;2023-05-19T06:08:18;97329.94;;;13.49;48.65
55171;BME280;41060;47.510;8.680;2023-05-19T06:10:44;97332.03;;;13.55;48.45
55171;BME280;41060;47.510;8.680;2023-05-19T06:13:11;97326.72;;;13.55;48.76
55171;BME280;41060;47.510;8.680;2023-05-19T06:15:38;97336.75;;;13.41;49.38
55171;BME280;41060;47.510;8.680;2023-05-19T06:18:05;97330.09;;;13.57;48.96
55171;BME280;41060;47.510;8.680;2023-05-19T06:20:33;97332.50;;;13.69;48.55
55171;BME280;41060;47.510;8.680;2023-05-19T06:23:01;97327.88;;;13.62;49.00
55171;BME280;41060;47.510;8.680;2023-05-19T06:25:28;97333.06;;;13.63;48.77
55171;BME280;41060;47.510;8.680;2023-05-19T06:27:55;97336.00;;;13.70;48.75
55171;BME280;41060;47.510;8.680;2023-05-19T06:30:21;97329.44;;;13.84;48.70
55171;BME280;41060;47.510;8.680;2023-05-19T06:32:48;97342.09;;;13.91;49.15
55171;BME280;41060;47.510;8.680;2023-05-19T06:35:15;97337.16;;;13.77;48.22
55171;BME280;41060;47.510;8.680;2023-05-19T06:37:43;97331.84;;;13.87;48.89
55171;BME280;41060;47.510;8.680;2023-05-19T06:40:11;97328.16;;;13.68;48.61
55171;BME280;41060;47.510;8.680;2023-05-19T06:42:38;97332.38;;;13.71;48.73
55171;BME280;41060;47.510;8.680;2023-05-19T06:45:08;97338.28;;;13.84;48.17
55171;BME280;41060;47.510;8.680;2023-05-19T06:47:35;97341.50;;;13.88;47.91
55171;BME280;41060;47.510;8.680;2023-05-19T06:50:02;97340.22;;;13.72;48.31
55171;BME280;41060;47.510;8.680;2023-05-19T06:52:28;97302.91;;;13.53;48.33
55171;BME280;41060;47.510;8.680;2023-05-19T06:54:56;97344.97;;;13.69;48.81
55171;BME280;41060;47.510;8.680;2023-05-19T06:57:23;97337.84;;;13.89;47.64
55171;BME280;41060;47.510;8.680;2023-05-19T06:59:50;97336.66;;;14.12;47.71
55171;BME280;41060;47.510;8.680;2023-05-19T07:02:16;97339.44;;;14.01;47.47
55171;BME280;41060;47.510;8.680;2023-05-19T07:04:43;97343.91;;;14.10;47.38
55171;BME280;41060;47.510;8.680;2023-05-19T07:07:11;97339.78;;;14.17;47.23
55171;BME280;41060;47.510;8.680;2023-05-19T07:09:38;97310.16;;;14.01;46.90
55171;BME280;41060;47.510;8.680;2023-05-19T07:12:06;97341.03;;;14.23;47.32
55171;BME280;41060;47.510;8.680;2023-05-19T07:14:33;97355.56;;;13.99;47.40
55171;BME280;41060;47.510;8.680;2023-05-19T07:17:00;97345.50;;;14.12;47.47
55171;BME280;41060;47.510;8.680;2023-05-19T07:19:27;97341.66;;;13.96;47.57
55171;BME280;41060;47.510;8.680;2023-05-19T07:21:54;97344.19;;;13.97;47.99
55171;BME280;41060;47.510;8.680;2023-05-19T07:24:21;97338.78;;;14.28;46.97
55171;BME280;41060;47.510;8.680;2023-05-19T07:26:48;97347.50;;;14.30;47.00
55171;BME280;41060;47.510;8.680;2023-05-19T07:29:16;97347.63;;;14.38;47.26
55171;BME280;41060;47.510;8.680;2023-05-19T07:31:43;97342.44;;;14.36;46.55
55171;BME280;41060;47.510;8.680;2023-05-19T07:34:10;97344.53;;;14.33;46.98
55171;BME280;41060;47.510;8.680;2023-05-19T07:36:36;97340.19;;;14.51;46.63
55171;BME280;41060;47.510;8.680;2023-05-19T07:39:03;97342.56;;;14.35;46.47
55171;BME280;41060;47.510;8.680;2023-05-19T07:41:30;97326.75;;;14.24;46.71
55171;BME280;41060;47.510;8.680;2023-05-19T07:43:58;97333.34;;;14.29;47.73
55171;BME280;41060;47.510;8.680;2023-05-19T07:46:26;97336.44;;;14.25;47.33
55171;BME280;41060;47.510;8.680;2023-05-19T07:48:53;97335.44;;;14.45;46.54
55171;BME280;41060;47.510;8.680;2023-05-19T07:51:19;97344.25;;;14.65;46.03
55171;BME280;41060;47.510;8.680;2023-05-19T07:53:46;97343.13;;;14.67;46.37
55171;BME280;41060;47.510;8.680;2023-05-19T07:56:13;97337.13;;;14.36;46.99
55171;BME280;41060;47.510;8.680;2023-05-19T07:58:39;97344.94;;;14.18;47.04
55171;BME280;41060;47.510;8.680;2023-05-19T08:01:06;97340.31;;;14.11;47.60
55171;BME280;41060;47.510;8.680;2023-05-19T08:03:34;97334.22;;;13.90;47.67
55171;BME280;41060;47.510;8.680;2023-05-19T08:06:01;97345.50;;;14.12;48.33
55171;BME280;41060;47.510;8.680;2023-05-19T08:08:27;97340.88;;;14.34;47.46
55171;BME280;41060;47.510;8.680;2023-05-19T08:11:00;97342.03;;;14.60;46.91
55171;BME280;41060;47.510;8.680;2023-05-19T08:13:27;97334.44;;;14.75;46.46
55171;BME280;41060;47.510;8.680;2023-05-19T08:15:53;97334.69;;;14.81;45.98
55171;BME280;41060;47.510;8.680;2023-05-19T08:18:24;97329.94;;;14.75;46.44
55171;BME280;41060;47.510;8.680;2023-05-19T08:20:52;97332.03;;;14.62;46.52
55171;BME280;41060;47.510;8.680;2023-05-19T08:23:18;97333.16;;;14.79;46.23
55171;BME280;41060;47.510;8.680;2023-05-19T08:25:46;97322.88;;;14.93;46.22
55171;BME280;41060;47.510;8.680;2023-05-19T08:28:12;97321.63;;;14.88;45.50
55171;BME280;41060;47.510;8.680;2023-05-19T08:30:39;97323.00;;;14.92;45.41
55171;BME280;41060;47.510;8.680;2023-05-19T08:33:06;97327.38;;;14.93;45.16
55171;BME280;41060;47.510;8.680;2023-05-19T08:35:32;97334.28;;;14.76;46.52
55171;BME280;41060;47.510;8.680;2023-05-19T08:38:00;97326.38;;;14.94;45.71
55171;BME280;41060;47.510;8.680;2023-05-19T08:40:30;97323.84;;;15.02;45.67
55171;BME280;41060;47.510;8.680;2023-05-19T08:42:58;97293.03;;;14.80;45.86
55171;BME280;41060;47.510;8.680;2023-05-19T08:45:25;97326.66;;;15.01;45.84
55171;BME280;41060;47.510;8.680;2023-05-19T08:47:53;97311.88;;;14.50;46.61
55171;BME280;41060;47.510;8.680;2023-05-19T08:50:23;97319.56;;;14.63;46.31
55171;BME280;41060;47.510;8.680;2023-05-19T08:52:51;97311.38;;;14.93;45.60
55171;BME280;41060;47.510;8.680;2023-05-19T08:55:30;97317.38;;;15.05;46.03
55171;BME280;41060;47.510;8.680;2023-05-19T08:58:02;97282.38;;;14.80;45.44
55171;BME280;41060;47.510;8.680;2023-05-19T09:00:30;97320.09;;;14.85;45.73
55171;BME280;41060;47.510;8.680;2023-05-19T09:02:58;97312.97;;;14.76;46.63
55171;BME280;41060;47.510;8.680;2023-05-19T09:05:25;97316.44;;;14.77;46.68
55171;BME280;41060;47.510;8.680;2023-05-19T09:07:52;97294.91;;;14.61;46.33
55171;BME280;41060;47.510;8.680;2023-05-19T09:10:19;97311.09;;;14.86;45.89
55171;BME280;41060;47.510;8.680;2023-05-19T09:12:47;97313.03;;;15.04;45.95
55171;BME280;41060;47.510;8.680;2023-05-19T09:15:16;97310.06;;;15.16;45.68
55171;BME280;41060;47.510;8.680;2023-05-19T09:17:44;97313.31;;;15.20;45.83
55171;BME280;41060;47.510;8.680;2023-05-19T09:20:12;97306.34;;;15.37;45.00
55171;BME280;41060;47.510;8.680;2023-05-19T09:22:41;97308.81;;;15.48;44.49
55171;BME280;41060;47.510;8.680;2023-05-19T09:25:18;97297.75;;;15.43;44.60
55171;BME280;41060;47.510;8.680;2023-05-19T09:27:47;97315.78;;;15.31;45.15
55171;BME280;41060;47.510;8.680;2023-05-19T09:30:15;97307.84;;;15.49;44.99
55171;BME280;41060;47.510;8.680;2023-05-19T09:32:42;97303.97;;;15.61;44.85
55171;BME280;41060;47.510;8.680;2023-05-19T09:35:10;97304.31;;;15.48;45.55
55171;BME280;41060;47.510;8.680;2023-05-19T09:37:38;97303.22;;;15.68;44.43
55171;BME280;41060;47.510;8.680;2023-05-19T09:40:07;97297.09;;;15.86;44.46
55171;BME280;41060;47.510;8.680;2023-05-19T09:42:36;97294.94;;;15.89;43.99
55171;BME280;41060;47.510;8.680;2023-05-19T09:45:06;97296.03;;;15.96;43.90
55171;BME280;41060;47.510;8.680;2023-05-19T09:47:33;97271.19;;;15.68;43.02
55171;BME280;41060;47.510;8.680;2023-05-19T09:50:03;97306.38;;;16.09;43.43
55171;BME280;41060;47.510;8.680;2023-05-19T09:52:30;97311.13;;;16.15;42.85
55171;BME280;41060;47.510;8.680;2023-05-19T09:54:57;97308.44;;;16.15;42.72
55171;BME280;41060;47.510;8.680;2023-05-19T09:57:25;97303.81;;;16.17;42.12
55171;BME280;41060;47.510;8.680;2023-05-19T09:59:54;97303.41;;;16.30;42.40
55171;BME280;41060;47.510;8.680;2023-05-19T10:02:24;97302.19;;;16.24;43.43
55171;BME280;41060;47.510;8.680;2023-05-19T10:04:51;97301.66;;;16.21;43.25
55171;BME280;41060;47.510;8.680;2023-05-19T10:07:22;97304.19;;;16.22;43.14
55171;BME280;41060;47.510;8.680;2023-05-19T10:09:51;97293.03;;;16.09;43.35
55171;BME280;41060;47.510;8.680;2023-05-19T10:12:19;97291.88;;;16.11;43.13
55171;BME280;41060;47.510;8.680;2023-05-19T10:14:46;97292.22;;;15.99;43.35
55171;BME280;41060;47.510;8.680;2023-05-19T10:17:14;97298.66;;;16.06;43.70
55171;BME280;41060;47.510;8.680;2023-05-19T10:19:43;97289.13;;;16.39;43.79
55171;BME280;41060;47.510;8.680;2023-05-19T10:22:10;97289.56;;;16.52;43.64
55171;BME280;41060;47.510;8.680;2023-05-19T10:24:36;97283.53;;;16.50;42.39
55171;BME280;41060;47.510;8.680;2023-05-19T10:27:09;97245.75;;;16.45;42.23
55171;BME280;41060;47.510;8.680;2023-05-19T10:29:38;97283.75;;;16.57;42.40
55171;BME280;41060;47.510;8.680;2023-05-19T10:32:24;97286.34;;;16.66;42.72
55171;BME280;41060;47.510;8.680;2023-05-19T10:35:26;97288.16;;;16.83;42.00
55171;BME280;41060;47.510;8.680;2023-05-19T10:38:08;97287.03;;;16.68;41.87
55171;BME280;41060;47.510;8.680;2023-05-19T10:40:40;97288.69;;;16.69;42.46
55171;BME280;41060;47.510;8.680;2023-05-19T10:43:22;97288.59;;;16.53;42.56
55171;BME280;41060;47.510;8.680;2023-05-19T10:45:52;97285.34;;;16.67;42.84
55171;BME280;41060;47.510;8.680;2023-05-19T10:48:19;97279.78;;;16.86;42.84
55171;BME280;41060;47.510;8.680;2023-05-19T10:50:48;97284.94;;;16.98;42.28
55171;BME280;41060;47.510;8.680;2023-05-19T10:53:20;97281.25;;;16.81;42.08
55171;BME280;41060;47.510;8.680;2023-05-19T10:55:52;97282.19;;;16.72;42.22
55171;BME280;41060;47.510;8.680;2023-05-19T10:58:40;97276.06;;;16.79;42.45
55171;BME280;41060;47.510;8.680;2023-05-19T11:01:16;97269.31;;;16.93;41.85
55171;BME280;41060;47.510;8.680;2023-05-19T11:03:44;97248.75;;;16.94;41.43
55171;BME280;41060;47.510;8.680;2023-05-19T11:06:34;97280.94;;;17.36;42.12
55171;BME280;41060;47.510;8.680;2023-05-19T11:09:10;97261.59;;;17.16;41.49
55171;BME280;41060;47.510;8.680;2023-05-19T11:11:45;97264.44;;;17.14;41.20
55171;BME280;41060;47.510;8.680;2023-05-19T11:14:14;97270.75;;;17.39;41.94
55171;BME280;41060;47.510;8.680;2023-05-19T11:16:41;97261.94;;;17.55;41.09
55171;BME280;41060;47.510;8.680;2023-05-19T11:19:16;97242.53;;;17.53;41.79
55171;BME280;41060;47.510;8.680;2023-05-19T11:21:50;97261.16;;;17.71;40.52
55171;BME280;41060;47.510;8.680;2023-05-19T11:24:37;97243.59;;;17.76;40.38
55171;BME280;41060;47.510;8.680;2023-05-19T11:27:25;97254.06;;;18.03;41.18
55171;BME280;41060;47.510;8.680;2023-05-19T11:29:53;97247.03;;;18.19;40.33
55171;BME280;41060;47.510;8.680;2023-05-19T11:32:21;97242.69;;;18.34;39.37
55171;BME280;41060;47.510;8.680;2023-05-19T11:34:48;97231.66;;;18.29;38.83
55171;BME280;41060;47.510;8.680;2023-05-19T11:37:16;97222.44;;;18.31;38.96
55171;BME280;41060;47.510;8.680;2023-05-19T11:39:45;97237.00;;;18.45;39.27
55171;BME280;41060;47.510;8.680;2023-05-19T11:42:12;97240.84;;;18.59;38.55
55171;BME280;41060;47.510;8.680;2023-05-19T11:44:38;97236.19;;;18.53;39.17
55171;BME280;41060;47.510;8.680;2023-05-19T11:47:06;97230.00;;;18.68;39.79
55171;BME280;41060;47.510;8.680;2023-05-19T11:49:35;97232.00;;;18.74;38.60
55171;BME280;41060;47.510;8.680;2023-05-19T11:52:03;97232.97;;;18.65;38.62
55171;BME280;41060;47.510;8.680;2023-05-19T11:54:33;97230.66;;;18.38;38.69
55171;BME280;41060;47.510;8.680;2023-05-19T11:57:01;97223.59;;;18.29;39.10
55171;BME280;41060;47.510;8.680;2023-05-19T11:59:28;97219.78;;;18.31;38.91
55171;BME280;41060;47.510;8.680;2023-05-19T12:01:59;97223.28;;;18.32;39.41
55171;BME280;41060;47.510;8.680;2023-05-19T12:04:26;97229.63;;;18.47;39.87
55171;BME280;41060;47.510;8.680;2023-05-19T12:06:52;97227.47;;;18.67;39.56
55171;BME280;41060;47.510;8.680;2023-05-19T12:09:21;97222.78;;;18.69;39.22
55171;BME280;41060;47.510;8.680;2023-05-19T12:11:49;97197.44;;;18.63;39.44
55171;BME280;41060;47.510;8.680;2023-05-19T12:14:17;97222.75;;;18.77;38.68
55171;BME280;41060;47.510;8.680;2023-05-19T12:16:44;97225.94;;;18.72;38.90
55171;BME280;41060;47.510;8.680;2023-05-19T12:19:10;97227.28;;;18.52;39.87
55171;BME280;41060;47.510;8.680;2023-05-19T12:21:37;97216.22;;;18.47;40.09
55171;BME280;41060;47.510;8.680;2023-05-19T12:24:05;97222.56;;;18.62;39.69
55171;BME280;41060;47.510;8.680;2023-05-19T12:26:33;97228.78;;;18.55;39.43
55171;BME280;41060;47.510;8.680;2023-05-19T12:29:03;97217.72;;;18.58;40.21
55171;BME280;41060;47.510;8.680;2023-05-19T12:31:31;97221.75;;;18.70;39.92
55171;BME280;41060;47.510;8.680;2023-05-19T12:33:58;97223.72;;;18.92;40.00
55171;BME280;41060;47.510;8.680;2023-05-19T12:36:25;97228.75;;;18.95;39.57
55171;BME280;41060;47.510;8.680;2023-05-19T12:38:54;97220.56;;;18.89;39.24
55171;BME280;41060;47.510;8.680;2023-05-19T12:41:20;97216.88;;;18.90;39.20
55171;BME280;41060;47.510;8.680;2023-05-19T12:43:49;97214.75;;;18.69;39.70
55171;BME280;41060;47.510;8.680;2023-05-19T12:46:17;97212.50;;;18.97;42.47
55171;BME280;41060;47.510;8.680;2023-05-19T12:48:45;97210.94;;;19.10;39.40
55171;BME280;41060;47.510;8.680;2023-05-19T12:51:15;97210.53;;;19.22;39.72
55171;BME280;41060;47.510;8.680;2023-05-19T12:53:42;97206.97;;;19.37;39.35
55171;BME280;41060;47.510;8.680;2023-05-19T12:56:13;97207.44;;;19.49;39.12
55171;BME280;41060;47.510;8.680;2023-05-19T12:58:40;97204.63;;;19.34;38.68
55171;BME280;41060;47.510;8.680;2023-05-19T13:01:14;97208.41;;;19.09;39.45
55171;BME280;41060;47.510;8.680;2023-05-19T13:03:43;97203.06;;;19.01;40.70
55171;BME280;41060;47.510;8.680;2023-05-19T13:06:10;97194.88;;;18.94;39.85
55171;BME280;41060;47.510;8.680;2023-05-19T13:08:37;97194.81;;;19.10;40.35
55171;BME280;41060;47.510;8.680;2023-05-19T13:11:04;97205.16;;;19.22;39.69
55171;BME280;41060;47.510;8.680;2023-05-19T13:13:31;97201.91;;;19.42;39.66